Time;durP1;ratioP1;P1;durP2;ratioP2;P2;SDS_P1;SDS_P2;PMS_P1;PMS_P2;Temp;Humidity;BMP_temperature;BMP_pressure;BME280_temperature;BME280_humidity;BME280_pressure;Samples;Min_cycle;Max_cycle;Signal;HPM_P1;HPM_P2
2021/05/18 00:01:20;;;;;;;0.1;0.1;;;;;;;;;;;;;
2021/05/18 00:03:47;;;;;;;0.2;0.2;;;;;;;;;;;;;
2021/05/18 00:06:12;;;;;;;0.6;0.1;;;;;;;;;;;;;
2021/05/18 00:11:42;;;;;;;0.2;0.1;;;;;;;;;;;;;
2021/05/18 00:13:27;;;;;;;0.7;0.2;;;;;;;;;;;;;
2021/05/18 00:15:54;;;;;;;0.9;0.1;;;;;;;;;;;;;
2021/05/18 00:18:17;;;;;;;0.4;0.2;;;;;;;;;;;;;
2021/05/18 00:20:43;;;;;;;0.4;0.3;;;;;;;;;;;;;
2021/05/18 00:23:08;;;;;;;0.2;0.2;;;;;;;;;;;;;
2021/05/18 00:25:33;;;;;;;0.1;0.1;;;;;;;;;;;;;
2021/05/18 00:27:58;;;;;;;0.2;0.2;;;;;;;;;;;;;
2021/05/18 00:30:23;;;;;;;0.4;0.2;;;;;;;;;;;;;
2021/05/18 00:32:49;;;;;;;0.8;0.2;;;;;;;;;;;;;
2021/05/18 00:35:15;;;;;;;0.1;0.1;;;;;;;;;;;;;
2021/05/18 00:37:40;;;;;;;0;0;;;;;;;;;;;;;
2021/05/18 00:40:06;;;;;;;1.6;0.2;;;;;;;;;;;;;
2021/05/18 00:42:31;;;;;;;0.1;0.1;;;;;;;;;;;;;
2021/05/18 00:44:58;;;;;;;0.1;0.1;;;;;;;;;;;;;
2021/05/18 00:47:23;;;;;;;0.1;0.1;;;;;;;;;;;;;
2021/05/18 00:49:49;;;;;;;0.5;0.1;;;;;;;;;;;;;
2021/05/18 00:52:15;;;;;;;0.1;0.1;;;;;;;;;;;;;
2021/05/18 00:54:42;;;;;;;0.1;0.1;;;;;;;;;;;;;
2021/05/18 00:59:29;;;;;;;0.7;0.1;;;;;;;;;;;;;
2021/05/18 01:01:56;;;;;;;0.2;0.1;;;;;;;;;;;;;
2021/05/18 01:04:23;;;;;;;0.1;0.1;;;;;;;;;;;;;
2021/05/18 01:06:46;;;;;;;0.1;0.1;;;;;;;;;;;;;
2021/05/18 01:09:12;;;;;;;0.1;0.1;;;;;;;;;;;;;
2021/05/18 01:11:37;;;;;;;0.1;0.1;;;;;;;;;;;;;
2021/05/18 01:14:04;;;;;;;0.1;0;;;;;;;;;;;;;
2021/05/18 01:16:27;;;;;;;0.3;0.1;;;;;;;;;;;;;
2021/05/18 01:18:52;;;;;;;0.1;0.1;;;;;;;;;;;;;
2021/05/18 01:21:17;;;;;;;0.1;0.1;;;;;;;;;;;;;
2021/05/18 01:23:43;;;;;;;0.2;0.2;;;;;;;;;;;;;
2021/05/18 01:26:08;;;;;;;0.2;0.2;;;;;;;;;;;;;
2021/05/18 01:28:35;;;;;;;0.3;0.2;;;;;;;;;;;;;
2021/05/18 01:31:00;;;;;;;0.1;0.1;;;;;;;;;;;;;
2021/05/18 01:33:25;;;;;;;0.2;0.2;;;;;;;;;;;;;
2021/05/18 01:35:50;;;;;;;0.5;0.4;;;;;;;;;;;;;
2021/05/18 01:38:18;;;;;;;0.9;0.3;;;;;;;;;;;;;
2021/05/18 01:43:07;;;;;;;0.3;0.2;;;;;;;;;;;;;
2021/05/18 01:45:32;;;;;;;0.1;0.1;;;;;;;;;;;;;
2021/05/18 01:47:58;;;;;;;0.2;0.2;;;;;;;;;;;;;
2021/05/18 01:50:23;;;;;;;0.2;0.2;;;;;;;;;;;;;
2021/05/18 01:52:49;;;;;;;0.6;0.2;;;;;;;;;;;;;
2021/05/18 01:55:17;;;;;;;0.2;0.2;;;;;;;;;;;;;
2021/05/18 01:57:40;;;;;;;0.9;0.2;;;;;;;;;;;;;
2021/05/18 02:00:05;;;;;;;0.2;0.1;;;;;;;;;;;;;
2021/05/18 02:02:32;;;;;;;0.3;0.2;;;;;;;;;;;;;
2021/05/18 02:04:57;;;;;;;0.3;0.1;;;;;;;;;;;;;
2021/05/18 02:07:23;;;;;;;0.2;0.2;;;;;;;;;;;;;
2021/05/18 02:09:48;;;;;;;0.1;0.1;;;;;;;;;;;;;
2021/05/18 02:12:18;;;;;;;0.2;0.2;;;;;;;;;;;;;
2021/05/18 02:14:47;;;;;;;1.5;0.3;;;;;;;;;;;;;
2021/05/18 02:17:15;;;;;;;0.1;0.1;;;;;;;;;;;;;
2021/05/18 02:19:44;;;;;;;0.4;0.4;;;;;;;;;;;;;
2021/05/18 02:22:18;;;;;;;0.2;0.2;;;;;;;;;;;;;
2021/05/18 02:25:04;;;;;;;0.1;0.1;;;;;;;;;;;;;
2021/05/18 02:26:59;;;;;;;0;0;;;;;;;;;;;;;
2021/05/18 02:29:24;;;;;;;0.6;0.2;;;;;;;;;;;;;
2021/05/18 02:31:50;;;;;;;0.1;0.1;;;;;;;;;;;;;
2021/05/18 02:34:15;;;;;;;0.2;0.2;;;;;;;;;;;;;
2021/05/18 02:36:40;;;;;;;0;0;;;;;;;;;;;;;
2021/05/18 02:39:05;;;;;;;0.1;0.1;;;;;;;;;;;;;
2021/05/18 02:41:32;;;;;;;0.1;0.1;;;;;;;;;;;;;
2021/05/18 02:43:59;;;;;;;0.1;0.1;;;;;;;;;;;;;
2021/05/18 02:49:09;;;;;;;0;0;;;;;;;;;;;;;
2021/05/18 02:51:13;;;;;;;0.2;0.1;;;;;;;;;;;;;
2021/05/18 02:53:38;;;;;;;0.1;0.1;;;;;;;;;;;;;
2021/05/18 02:56:09;;;;;;;0;0;;;;;;;;;;;;;
2021/05/18 02:58:31;;;;;;;0.1;0.1;;;;;;;;;;;;;
2021/05/18 03:00:55;;;;;;;0.3;0.2;;;;;;;;;;;;;
2021/05/18 03:03:20;;;;;;;0.1;0.1;;;;;;;;;;;;;
2021/05/18 03:05:45;;;;;;;0;0;;;;;;;;;;;;;
2021/05/18 03:08:10;;;;;;;0.1;0.1;;;;;;;;;;;;;
2021/05/18 03:10:36;;;;;;;0.2;0.2;;;;;;;;;;;;;
2021/05/18 03:13:01;;;;;;;0.1;0.1;;;;;;;;;;;;;
2021/05/18 03:15:29;;;;;;;0.1;0.1;;;;;;;;;;;;;
2021/05/18 03:17:53;;;;;;;0.1;0.1;;;;;;;;;;;;;
2021/05/18 03:20:18;;;;;;;0.1;0.1;;;;;;;;;;;;;
2021/05/18 03:22:43;;;;;;;3.8;2.8;;;;;;;;;;;;;
2021/05/18 03:25:08;;;;;;;0.8;0.5;;;;;;;;;;;;;
2021/05/18 03:27:34;;;;;;;0.1;0.1;;;;;;;;;;;;;
2021/05/18 03:30:01;;;;;;;0;0;;;;;;;;;;;;;
2021/05/18 03:34:51;;;;;;;0.1;0.1;;;;;;;;;;;;;
2021/05/18 03:37:18;;;;;;;0.1;0.1;;;;;;;;;;;;;
2021/05/18 03:39:42;;;;;;;0.5;0.2;;;;;;;;;;;;;
2021/05/18 03:42:12;;;;;;;0.1;0.1;;;;;;;;;;;;;
2021/05/18 03:44:48;;;;;;;0;0;;;;;;;;;;;;;
2021/05/18 03:52:22;;;;;;;0.2;0.2;;;;;;;;;;;;;
2021/05/18 03:54:34;;;;;;;0.1;0;;;;;;;;;;;;;
2021/05/18 04:02:42;;;;;;;0.2;0.2;;;;;;;8.36;87.87207;935.8198;;;;
2021/05/18 04:04:58;;;;;;;0.2;0.2;;;;;;;8.32;87.99902;935.9807;;;;
2021/05/18 04:12:16;;;;;;;0.6;0.5;;;;;;;8.6;87.56738;935.9533;;;;
2021/05/18 04:17:03;;;;;;;0.6;0.3;;;;;;;8.72;86.43164;935.967;;;;
2021/05/18 04:19:43;;;;;;;1.6;1.2;;;;;;;8.85;86.36816;935.9182;;;;
2021/05/18 04:22:10;;;;;;;1.3;1.1;;;;;;;8.82;86.22656;935.7971;;;;
2021/05/18 04:24:41;;;;;;;1.1;0.8;;;;;;;8.93;85.8252;935.7944;;;;
2021/05/18 04:27:00;;;;;;;0.5;0.5;;;;;;;8.95;85.81934;935.8684;;;;
2021/05/18 04:38:57;;;;;;;0.2;0.2;;;;;;;8.91;86.32227;935.8481;;;;
2021/05/18 04:49:06;;;;;;;0.1;0.1;;;;;;;8.88;86.85156;935.8613;;;;
2021/05/18 04:51:17;;;;;;;0.1;0.1;;;;;;;8.99;85.05273;935.9015;;;;
2021/05/18 04:53:29;;;;;;;0.3;0.3;;;;;;;9.03;85.46973;935.957;;;;
2021/05/18 05:00:48;;;;;;;0.1;0.1;;;;;;;8.94;87.03516;935.947;;;;
2021/05/18 05:03:46;;;;;;;0.1;0.1;;;;;;;9.11;86.77148;935.9753;;;;
2021/05/18 05:07:59;;;;;;;0.3;0.3;;;;;;;9.47;83.59668;935.9788;;;;
2021/05/18 05:12:17;;;;;;;0.6;0.5;;;;;;;9.56;83.76367;935.9995;;;;
2021/05/18 05:14:06;;;;;;;0.7;0.4;;;;;;;9.64;83.62012;935.9752;;;;
2021/05/18 05:15:23;;;;;;;0.2;0.2;;;;;;;9.99;82.44727;936.0237;;;;
2021/05/18 05:17:48;;;;;;;0.3;0.2;;;;;;;10.18;81.36328;936.027;;;;
2021/05/18 05:20:48;;;;;;;0;0;;;;;;;10.26;81.63965;936.0887;;;;
2021/05/18 05:23:13;;;;;;;0.3;0.2;;;;;;;10.59;79.75;936.1451;;;;
2021/05/18 05:25:38;;;;;;;0.2;0.2;;;;;;;10.68;79.5625;936.1643;;;;
2021/05/18 05:28:06;;;;;;;0.3;0.2;;;;;;;11.1;78.40332;936.0839;;;;
2021/05/18 05:30:31;;;;;;;0.1;0.1;;;;;;;11.14;77.07324;936.0784;;;;
2021/05/18 05:32:56;;;;;;;0.3;0.1;;;;;;;11.35;76.84766;936.25;;;;
2021/05/18 05:35:21;;;;;;;0.1;0.1;;;;;;;11.34;75.81738;936.2269;;;;
2021/05/18 05:37:48;;;;;;;0.1;0.1;;;;;;;11.19;76.62598;936.2811;;;;
2021/05/18 05:40:12;;;;;;;0.1;0.1;;;;;;;11.16;77.87891;936.3423;;;;
2021/05/18 05:42:37;;;;;;;1;0.3;;;;;;;11.25;76.85254;936.1732;;;;
2021/05/18 05:45:02;;;;;;;0.5;0.2;;;;;;;11.2;76.2041;936.2214;;;;
2021/05/18 05:47:27;;;;;;;0.1;0.1;;;;;;;11.3;75.35254;936.2339;;;;
2021/05/18 05:49:53;;;;;;;0.3;0.2;;;;;;;11.47;75.15332;936.2603;;;;
2021/05/18 05:52:29;;;;;;;0.3;0.2;;;;;;;11.58;74.45117;936.2692;;;;
2021/05/18 05:54:54;;;;;;;0.2;0.1;;;;;;;11.98;73.85645;936.3378;;;;
2021/05/18 05:57:19;;;;;;;0.3;0.3;;;;;;;12.12;72.27539;936.3636;;;;
2021/05/18 05:59:46;;;;;;;0.4;0.2;;;;;;;12.26;72.69922;936.3583;;;;
2021/05/18 06:02:11;;;;;;;0.3;0.2;;;;;;;12.57;72.17676;936.4016;;;;
2021/05/18 06:04:38;;;;;;;0.1;0.1;;;;;;;12.5;72.09766;936.4192;;;;
2021/05/18 06:07:03;;;;;;;0.1;0.1;;;;;;;12.9;70.99219;936.3847;;;;
2021/05/18 06:09:31;;;;;;;0.2;0.2;;;;;;;12.92;70.22754;936.4326;;;;
2021/05/18 06:11:59;;;;;;;0.3;0.3;;;;;;;13.03;70.38184;936.4166;;;;
2021/05/18 06:14:36;;;;;;;0.2;0.2;;;;;;;13.12;68.71875;936.4562;;;;
2021/05/18 06:17:13;;;;;;;0.3;0.2;;;;;;;12.86;70.49316;936.5119;;;;
2021/05/18 06:34:15;;;;;;;0.1;0.1;;;;;;;13.22;64.71387;936.67;;;;
2021/05/18 06:41:13;;;;;;;0;0;;;;;;;12.9;66.61816;936.8035;;;;
2021/05/18 06:43:28;;;;;;;0.2;0.2;;;;;;;13.05;64.74707;936.745;;;;
2021/05/18 06:46:10;;;;;;;0.3;0.2;;;;;;;13.02;64.77637;936.8387;;;;
2021/05/18 06:48:15;;;;;;;0;0;;;;;;;13.01;65.21094;936.7824;;;;
2021/05/18 06:50:40;;;;;;;0;0;;;;;;;12.71;66.8291;936.7875;;;;
2021/05/18 06:53:05;;;;;;;0.1;0.1;;;;;;;12.43;69.49512;936.7291;;;;
2021/05/18 06:55:32;;;;;;;0;0;;;;;;;12.37;70.44727;936.7192;;;;
2021/05/18 06:58:03;;;;;;;0;0;;;;;;;12.27;71.37109;936.704;;;;
2021/05/18 07:00:23;;;;;;;0;0;;;;;;;12.28;71.94727;936.6769;;;;
2021/05/18 07:02:50;;;;;;;0.1;0.1;;;;;;;12.29;72.30371;936.7009;;;;
2021/05/18 07:05:18;;;;;;;0.5;0.1;;;;;;;12.62;72.13965;936.7316;;;;
2021/05/18 07:07:40;;;;;;;0.1;0.1;;;;;;;13.24;71.10449;936.6292;;;;
2021/05/18 07:10:08;;;;;;;0;0;;;;;;;13.65;68.24023;936.7023;;;;
2021/05/18 07:12:37;;;;;;;0.1;0.1;;;;;;;14.34;67.86523;936.7012;;;;
2021/05/18 07:15:01;;;;;;;0.7;0.1;;;;;;;16.26;61.97461;936.7644;;;;
2021/05/18 07:17:26;;;;;;;1.2;0.2;;;;;;;17.79;54.33105;936.748;;;;
2021/05/18 07:19:55;;;;;;;0;0;;;;;;;17.37;55.02051;936.7224;;;;
2021/05/18 07:22:20;;;;;;;0;0;;;;;;;17.29;54.03809;936.7633;;;;
2021/05/18 07:24:45;;;;;;;0.1;0.1;;;;;;;16.97;55.5166;936.8328;;;;
2021/05/18 07:27:10;;;;;;;0;0;;;;;;;16.84;55.41797;936.8344;;;;
2021/05/18 07:29:38;;;;;;;0.1;0.1;;;;;;;16.36;56.31836;936.8103;;;;
2021/05/18 07:32:04;;;;;;;0;0;;;;;;;15.64;60.2002;936.6852;;;;
2021/05/18 07:34:29;;;;;;;0;0;;;;;;;15.14;58.8623;936.6875;;;;
2021/05/18 07:36:58;;;;;;;0.1;0;;;;;;;14.67;62.30078;936.6683;;;;
2021/05/18 07:39:27;;;;;;;0.5;0.1;;;;;;;14.53;62.55762;936.5499;;;;
2021/05/18 07:41:52;;;;;;;0.4;0.1;;;;;;;14.29;64.22852;936.6433;;;;
2021/05/18 07:44:21;;;;;;;1;0.6;;;;;;;13.85;66.62598;936.7;;;;
2021/05/18 07:46:50;;;;;;;0.1;0.1;;;;;;;13.47;65.50977;936.7076;;;;
2021/05/18 07:49:27;;;;;;;0.7;0.5;;;;;;;13.58;66.11426;936.6808;;;;
2021/05/18 07:59:23;;;;;;;0.2;0.1;;;;;;;14.9;62.43848;936.6071;;;;
2021/05/18 08:06:19;;;;;;;0.1;0.1;;;;;;;16.53;56.17773;936.5901;;;;
2021/05/18 08:08:47;;;;;;;0.9;0.2;;;;;;;17.85;53.4209;936.54;;;;
2021/05/18 08:11:11;;;;;;;0.2;0.2;;;;;;;18.1;53.84668;936.5364;;;;
2021/05/18 08:13:39;;;;;;;0.5;0.2;;;;;;;19.15;49.31738;936.5198;;;;
2021/05/18 08:19:13;;;;;;;0;0;;;;;;;22.25;42.13379;936.5098;;;;
2021/05/18 08:48:26;;;;;;;0;0;;;;;;;17.56;52.80566;936.5958;;;;
2021/05/18 09:34:36;;;;;;;0.1;0;;;;;;;24.28;37.28516;936.1194;;;;
2021/05/18 09:49:09;;;;;;;0;0;;;;;;;23.86;36.41406;936.1311;;;;
2021/05/18 10:23:43;;;;;;;0.1;0.1;;;;;;;16.55;51.75879;936.2513;;;;
2021/05/18 10:24:41;;;;;;;0;0;;;;;;;16.01;53.55566;936.1714;;;;
2021/05/18 10:35:51;;;;;;;0.5;0.1;;;;;;;15.9;51.11426;935.9788;;;;
2021/05/18 10:38:14;;;;;;;0;0;;;;;;;15.72;47.00293;935.8864;;;;
2021/05/18 10:40:39;;;;;;;0.1;0.1;;;;;;;15.4;48.21582;935.9772;;;;
2021/05/18 10:43:17;;;;;;;0;0;;;;;;;15.12;47.51563;935.8985;;;;
2021/05/18 10:45:42;;;;;;;0;0;;;;;;;14.53;49.09961;935.8783;;;;
2021/05/18 10:48:08;;;;;;;0.3;0.1;;;;;;;14.25;50.94531;935.9395;;;;
2021/05/18 10:50:33;;;;;;;0.1;0.1;;;;;;;14.46;50.76172;936;;;;
2021/05/18 10:53:01;;;;;;;0.1;0.1;;;;;;;14.45;49.52832;935.9744;;;;
2021/05/18 10:55:26;;;;;;;1.1;0.2;;;;;;;14.4;50.59375;935.9767;;;;
2021/05/18 10:57:51;;;;;;;0;0;;;;;;;14.43;49.50391;935.8697;;;;
2021/05/18 11:00:17;;;;;;;0.5;0.2;;;;;;;14.42;49.95117;935.8752;;;;
2021/05/18 11:02:42;;;;;;;0;0;;;;;;;14.63;49.23828;935.9017;;;;
2021/05/18 11:05:07;;;;;;;0.2;0.1;;;;;;;14.86;51.3623;935.8106;;;;
2021/05/18 11:07:33;;;;;;;0;0;;;;;;;15.17;46.93262;935.8066;;;;
2021/05/18 11:09:58;;;;;;;2;0.3;;;;;;;16.06;48.42773;935.7758;;;;
2021/05/18 11:12:27;;;;;;;0.1;0.1;;;;;;;16.81;44.22559;935.7584;;;;
2021/05/18 11:14:52;;;;;;;0;0;;;;;;;16.87;42.96875;935.6434;;;;
2021/05/18 11:17:17;;;;;;;0;0;;;;;;;17.69;45.33398;935.5469;;;;
2021/05/18 11:19:43;;;;;;;0;0;;;;;;;18.18;42.1084;935.5497;;;;
2021/05/18 11:22:08;;;;;;;0;0;;;;;;;18.71;41.46094;935.519;;;;
2021/05/18 11:24:33;;;;;;;0.1;0.1;;;;;;;18.91;39.79199;935.514;;;;
2021/05/18 11:26:59;;;;;;;0;0;;;;;;;18.24;42.14941;935.5839;;;;
2021/05/18 11:29:24;;;;;;;0.2;0.1;;;;;;;17.91;44.0918;935.5992;;;;
2021/05/18 11:31:50;;;;;;;0;0;;;;;;;17.14;46.50586;935.608;;;;
2021/05/18 11:34:15;;;;;;;0.1;0;;;;;;;17.56;45.6582;935.5886;;;;
2021/05/18 11:36:43;;;;;;;0;0;;;;;;;17.76;46.82813;935.4841;;;;
2021/05/18 11:39:11;;;;;;;0;0;;;;;;;17.7;49.82715;935.4285;;;;
2021/05/18 11:41:37;;;;;;;0;0;;;;;;;17.64;50.13379;935.5226;;;;
2021/05/18 11:44:01;;;;;;;0;0;;;;;;;17.67;47.94336;935.5541;;;;
2021/05/18 11:46:26;;;;;;;0;0;;;;;;;17.7;47.56348;935.6199;;;;
2021/05/18 11:48:52;;;;;;;3.3;0.1;;;;;;;17.25;51.36621;935.7806;;;;
2021/05/18 11:51:19;;;;;;;0.7;0.4;;;;;;;16.76;53.17285;935.7908;;;;
2021/05/18 11:53:46;;;;;;;0.4;0;;;;;;;15.73;53.71777;935.7947;;;;
2021/05/18 11:56:11;;;;;;;0;0;;;;;;;15.05;56.77246;935.7381;;;;
2021/05/18 11:58:38;;;;;;;0;0;;;;;;;15.27;56.56934;935.7567;;;;
2021/05/18 12:01:03;;;;;;;0;0;;;;;;;15.36;56.89453;935.7458;;;;
2021/05/18 12:03:28;;;;;;;0;0;;;;;;;15.41;56.38086;935.6481;;;;
2021/05/18 12:05:54;;;;;;;0;0;;;;;;;15.56;57.4502;935.7137;;;;
2021/05/18 12:08:19;;;;;;;0;0;;;;;;;15.77;53.31934;935.8133;;;;
2021/05/18 12:10:44;;;;;;;0.1;0.1;;;;;;;15.93;53.24609;935.9116;;;;
2021/05/18 12:13:09;;;;;;;0;0;;;;;;;16.07;53.12207;935.8858;;;;
2021/05/18 12:15:35;;;;;;;0;0;;;;;;;15.78;53.33105;935.9303;;;;
2021/05/18 12:18:01;;;;;;;0;0;;;;;;;15.13;53.19531;935.8879;;;;
2021/05/18 12:20:28;;;;;;;0.3;0.1;;;;;;;14.6;55.28613;935.9225;;;;
2021/05/18 12:22:53;;;;;;;0.1;0.1;;;;;;;14.27;56.40527;935.941;;;;
2021/05/18 12:25:18;;;;;;;0;0;;;;;;;14.18;56.39355;935.9679;;;;
2021/05/18 12:27:43;;;;;;;0;0;;;;;;;13.96;56.40039;935.8805;;;;
2021/05/18 12:30:12;;;;;;;0;0;;;;;;;14.09;58.88281;935.9149;;;;
2021/05/18 12:32:39;;;;;;;0;0;;;;;;;14.49;56.69922;935.8395;;;;
2021/05/18 12:35:05;;;;;;;0;0;;;;;;;14.68;56.38965;935.8162;;;;
2021/05/18 12:37:31;;;;;;;0;0;;;;;;;14.64;56.17676;935.8736;;;;
2021/05/18 12:39:56;;;;;;;0;0;;;;;;;14.67;55.29395;935.8405;;;;
2021/05/18 12:42:23;;;;;;;0;0;;;;;;;14.83;53.79199;935.762;;;;
2021/05/18 12:44:48;;;;;;;0;0;;;;;;;14.7;53.56934;935.6902;;;;
2021/05/18 12:47:13;;;;;;;0;0;;;;;;;14.19;54.72656;935.7499;;;;
2021/05/18 12:49:39;;;;;;;0;0;;;;;;;14.04;57.06836;935.7576;;;;
2021/05/18 12:52:03;;;;;;;0;0;;;;;;;14.32;55.36523;935.633;;;;
2021/05/18 12:54:29;;;;;;;2.2;0.2;;;;;;;14.45;56.16504;935.7517;;;;
2021/05/18 12:56:54;;;;;;;0;0;;;;;;;15.02;53.40039;935.7313;;;;
2021/05/18 12:59:19;;;;;;;0;0;;;;;;;15.22;54.50977;935.7188;;;;
2021/05/18 13:01:46;;;;;;;0.1;0.1;;;;;;;15.55;53.82324;935.6697;;;;
2021/05/18 13:04:10;;;;;;;0;0;;;;;;;15.58;52.25488;935.5851;;;;
2021/05/18 13:06:37;;;;;;;0;0;;;;;;;15.81;53.43848;935.6128;;;;
2021/05/18 13:09:01;;;;;;;0;0;;;;;;;15.85;52.57715;935.5779;;;;
2021/05/18 13:12:11;;;;;;;0.1;0;;;;;;;15.93;51.11719;935.527;;;;
2021/05/18 13:13:56;;;;;;;0;0;;;;;;;16.1;53.5791;935.4024;;;;
2021/05/18 13:16:29;;;;;;;0;0;;;;;;;16.38;48.46387;935.4358;;;;
2021/05/18 13:18:55;;;;;;;0;0;;;;;;;16.41;50.14453;935.4353;;;;
2021/05/18 13:21:20;;;;;;;0;0;;;;;;;16.65;48.3418;935.4276;;;;
2021/05/18 13:24:00;;;;;;;0;0;;;;;;;17.29;46.89258;935.4073;;;;
2021/05/18 13:26:27;;;;;;;0;0;;;;;;;17.76;44.90137;935.3164;;;;
2021/05/18 13:28:40;;;;;;;0;0;;;;;;;18.05;42.6416;935.3442;;;;
2021/05/18 13:31:05;;;;;;;0;0;;;;;;;18.08;41.78613;935.3079;;;;
2021/05/18 13:33:31;;;;;;;6.9;0.1;;;;;;;17.56;43.19824;935.3069;;;;
2021/05/18 13:35:59;;;;;;;0.1;0.1;;;;;;;17.56;44.75391;935.2584;;;;
2021/05/18 13:38:23;;;;;;;0;0;;;;;;;17.68;43.33691;935.2692;;;;
2021/05/18 13:40:48;;;;;;;0.4;0;;;;;;;17.4;44.28516;935.1658;;;;
2021/05/18 13:43:14;;;;;;;0;0;;;;;;;16.73;44.54102;935.2302;;;;
2021/05/18 13:45:39;;;;;;;0;0;;;;;;;16.94;45.65137;935.2159;;;;
2021/05/18 13:48:11;;;;;;;0.2;0.2;;;;;;;16.78;44.67383;935.2292;;;;
2021/05/18 13:50:38;;;;;;;0;0;;;;;;;16.74;45.14453;935.1552;;;;
2021/05/18 13:53:01;;;;;;;0;0;;;;;;;16.95;44.16992;935.2455;;;;
2021/05/18 13:55:26;;;;;;;0;0;;;;;;;17.26;44.91992;935.1753;;;;
2021/05/18 13:57:51;;;;;;;0;0;;;;;;;17.37;42.88867;935.0748;;;;
2021/05/18 14:00:17;;;;;;;0.1;0;;;;;;;17.26;44.31641;935.0916;;;;
2021/05/18 14:02:42;;;;;;;0;0;;;;;;;17.55;43.56738;935.0897;;;;
2021/05/18 14:05:09;;;;;;;0;0;;;;;;;17.68;42.33984;935.063;;;;
2021/05/18 14:08:01;;;;;;;0;0;;;;;;;17.48;45.05762;934.9994;;;;
2021/05/18 14:10:08;;;;;;;0;0;;;;;;;17.33;45.53027;935.0861;;;;
2021/05/18 14:12:33;;;;;;;0;0;;;;;;;17.34;45.40332;935.0569;;;;
2021/05/18 14:14:59;;;;;;;0;0;;;;;;;17.49;43.72461;935.0427;;;;
2021/05/18 14:17:26;;;;;;;0;0;;;;;;;17.38;42.9248;934.962;;;;
2021/05/18 14:19:51;;;;;;;0;0;;;;;;;17.28;44.3418;934.9462;;;;
2021/05/18 14:22:18;;;;;;;0;0;;;;;;;17.05;44.57324;934.9462;;;;
2021/05/18 14:24:51;;;;;;;0;0;;;;;;;17.14;41.99805;934.8895;;;;
2021/05/18 14:27:12;;;;;;;0;0;;;;;;;17.03;42.64746;934.9231;;;;
2021/05/18 14:29:34;;;;;;;0;0;;;;;;;16.88;44.33594;934.8712;;;;
2021/05/18 14:31:59;;;;;;;0;0;;;;;;;16.81;43.56543;934.8064;;;;
2021/05/18 14:34:24;;;;;;;0;0;;;;;;;16.58;44.0752;934.8142;;;;
2021/05/18 14:36:49;;;;;;;0;0;;;;;;;16.69;45.44043;934.775;;;;
2021/05/18 14:39:23;;;;;;;0;0;;;;;;;16.77;46.79199;934.7855;;;;
2021/05/18 14:44:15;;;;;;;0.2;0.1;;;;;;;16.76;46.11914;934.7503;;;;
2021/05/18 14:46:41;;;;;;;0;0;;;;;;;16.9;46.70117;934.7695;;;;
2021/05/18 14:54:05;;;;;;;0;0;;;;;;;16.87;44.94922;934.7966;;;;
2021/05/18 14:56:15;;;;;;;0.1;0.1;;;;;;;16.68;44.16602;934.7068;;;;
2021/05/18 14:58:41;;;;;;;0;0;;;;;;;16.87;45.11133;934.7026;;;;
2021/05/18 15:01:06;;;;;;;1.1;0.3;;;;;;;16.77;46.29395;934.6809;;;;
2021/05/18 15:03:33;;;;;;;0.7;0.4;;;;;;;16.61;45.68555;934.6459;;;;
2021/05/18 15:05:58;;;;;;;0;0;;;;;;;16.34;47.68359;934.6138;;;;
2021/05/18 15:08:22;;;;;;;0;0;;;;;;;16.57;46.2373;934.6691;;;;
2021/05/18 15:10:51;;;;;;;0.5;0.2;;;;;;;16.47;47.48828;934.7096;;;;
2021/05/18 15:13:12;;;;;;;0.1;0.1;;;;;;;16.18;47.64355;934.6524;;;;
2021/05/18 15:15:38;;;;;;;0;0;;;;;;;15.93;48.77148;934.6566;;;;
2021/05/18 15:18:04;;;;;;;0.1;0.1;;;;;;;15.94;48.39063;934.6242;;;;
2021/05/18 15:20:32;;;;;;;0.9;0.1;;;;;;;15.78;48.67383;934.5961;;;;
2021/05/18 15:22:57;;;;;;;0;0;;;;;;;15.31;53.46973;934.5704;;;;
2021/05/18 15:25:26;;;;;;;0.1;0.1;;;;;;;15.47;52.77441;934.5762;;;;
2021/05/18 15:27:51;;;;;;;0;0;;;;;;;15.36;50.13965;934.5175;;;;
2021/05/18 15:30:17;;;;;;;0;0;;;;;;;15.5;50.88379;934.5591;;;;
2021/05/18 15:32:42;;;;;;;0;0;;;;;;;15.27;52.59961;934.616;;;;
2021/05/18 15:35:08;;;;;;;0.1;0;;;;;;;15;53.39844;934.5999;;;;
2021/05/18 15:37:33;;;;;;;0.1;0.1;;;;;;;15.06;52.57422;934.6474;;;;
2021/05/18 15:39:59;;;;;;;1;0.1;;;;;;;15.1;51.59766;934.6165;;;;
2021/05/18 15:42:24;;;;;;;0;0;;;;;;;15.14;51.66211;934.587;;;;
2021/05/18 15:44:50;;;;;;;0;0;;;;;;;15.09;51.58594;934.6078;;;;
2021/05/18 15:47:16;;;;;;;0;0;;;;;;;15.18;50.46582;934.6827;;;;
2021/05/18 15:49:46;;;;;;;1;0.3;;;;;;;15.04;51.85645;934.7271;;;;
2021/05/18 15:52:13;;;;;;;0.1;0.1;;;;;;;14.9;52.47461;934.7278;;;;
2021/05/18 15:54:38;;;;;;;0.3;0.1;;;;;;;15.02;53.36523;934.7058;;;;
2021/05/18 15:57:05;;;;;;;0.1;0.1;;;;;;;15.17;52.71387;934.7639;;;;
2021/05/18 15:59:30;;;;;;;0;0;;;;;;;15.2;52.1748;934.7369;;;;
2021/05/18 16:01:57;;;;;;;0.5;0.2;;;;;;;15.17;52.28711;934.7206;;;;
2021/05/18 16:04:23;;;;;;;0.1;0.1;;;;;;;15.34;52.6084;934.6791;;;;
2021/05/18 16:08:05;;;;;;;2.7;0.5;;;;;;;15.34;52.71289;934.7054;;;;
2021/05/18 16:09:48;;;;;;;0;0;;;;;;;15.49;51.69043;934.8304;;;;
2021/05/18 16:12:14;;;;;;;0.2;0.1;;;;;;;15.42;52.6875;934.7776;;;;
2021/05/18 16:14:40;;;;;;;0;0;;;;;;;15.24;53.38184;934.7913;;;;
2021/05/18 16:17:05;;;;;;;0;0;;;;;;;14.89;54.7793;934.8563;;;;
2021/05/18 16:19:32;;;;;;;0;0;;;;;;;14.92;53.87109;934.8334;;;;
2021/05/18 16:21:57;;;;;;;0.4;0.2;;;;;;;14.55;57.35352;934.822;;;;
2021/05/18 16:24:25;;;;;;;0.1;0.1;;;;;;;14.43;58.88184;934.8047;;;;
2021/05/18 16:26:50;;;;;;;0.1;0.1;;;;;;;14.44;59.85059;934.7977;;;;
2021/05/18 16:29:16;;;;;;;0;0;;;;;;;14.41;59.46484;934.8191;;;;
2021/05/18 16:31:41;;;;;;;0;0;;;;;;;14.47;60.00391;934.8494;;;;
2021/05/18 16:34:07;;;;;;;0.1;0.1;;;;;;;14.5;61.22852;934.8443;;;;
2021/05/18 16:36:32;;;;;;;0.1;0.1;;;;;;;14.36;62.1416;934.8876;;;;
2021/05/18 16:38:59;;;;;;;0.2;0.2;;;;;;;14.23;62.62988;934.8746;;;;
2021/05/18 16:41:24;;;;;;;1;0.1;;;;;;;13.94;60.0127;934.8159;;;;
2021/05/18 16:43:53;;;;;;;0;0;;;;;;;13.7;65.0625;934.7545;;;;
2021/05/18 16:46:20;;;;;;;0.1;0.1;;;;;;;13.45;66.5293;934.6906;;;;
2021/05/18 16:48:45;;;;;;;0.5;0.4;;;;;;;13.56;69.375;934.7297;;;;
2021/05/18 16:51:13;;;;;;;0.2;0.1;;;;;;;13.81;68.18457;934.8224;;;;
2021/05/18 16:53:40;;;;;;;0.2;0.1;;;;;;;13.75;66.72559;934.8997;;;;
2021/05/18 16:56:07;;;;;;;1.7;0.1;;;;;;;13.93;65.58984;934.957;;;;
2021/05/18 16:58:32;;;;;;;0;0;;;;;;;13.96;65.49316;935.0239;;;;
2021/05/18 17:01:00;;;;;;;0;0;;;;;;;13.67;65.98828;935.0588;;;;
2021/05/18 17:03:25;;;;;;;0.1;0.1;;;;;;;13.71;66.30566;935.0977;;;;
2021/05/18 17:05:52;;;;;;;0.1;0;;;;;;;13.75;66.08105;935.1135;;;;
2021/05/18 17:08:17;;;;;;;1.2;0.4;;;;;;;13.7;66.56738;935.1122;;;;
2021/05/18 17:10:43;;;;;;;0.1;0.1;;;;;;;13.73;66.41211;935.1592;;;;
2021/05/18 17:13:08;;;;;;;0.7;0.2;;;;;;;13.83;65.94434;935.1147;;;;
2021/05/18 17:15:33;;;;;;;0.1;0.1;;;;;;;13.68;65.25391;935.1612;;;;
2021/05/18 17:17:59;;;;;;;0.1;0.1;;;;;;;13.5;66.53711;935.1718;;;;
2021/05/18 17:20:24;;;;;;;0.2;0.2;;;;;;;13.4;67.76465;935.2048;;;;
2021/05/18 17:22:49;;;;;;;0.2;0.2;;;;;;;13.43;68.43555;935.213;;;;
2021/05/18 17:25:14;;;;;;;0.2;0.1;;;;;;;13.36;69.45898;935.1772;;;;
2021/05/18 17:27:40;;;;;;;0.1;0.1;;;;;;;13.13;71.14551;935.1898;;;;
2021/05/18 17:30:05;;;;;;;0.4;0.3;;;;;;;12.74;71.86133;935.2167;;;;
2021/05/18 17:32:32;;;;;;;0.2;0.2;;;;;;;12.56;75.07715;935.3448;;;;
2021/05/18 17:34:57;;;;;;;0.3;0.1;;;;;;;12.33;76.44824;935.3251;;;;
2021/05/18 17:37:24;;;;;;;0.4;0.3;;;;;;;12.16;77.93164;935.3508;;;;
2021/05/18 17:39:49;;;;;;;0.3;0.3;;;;;;;12.05;79.24121;935.3469;;;;
2021/05/18 17:42:16;;;;;;;0.3;0.2;;;;;;;12.27;79.32813;935.4076;;;;
2021/05/18 17:44:43;;;;;;;1.8;0.4;;;;;;;12.16;78.60742;935.3412;;;;
2021/05/18 17:47:09;;;;;;;0.7;0.1;;;;;;;12.01;78.2373;935.4744;;;;
2021/05/18 17:49:34;;;;;;;0.1;0.1;;;;;;;11.81;79.57422;935.4581;;;;
2021/05/18 17:52:00;;;;;;;0.6;0.4;;;;;;;11.75;81.20117;935.4443;;;;
2021/05/18 17:54:25;;;;;;;0.5;0.4;;;;;;;11.8;79.51563;935.4278;;;;
2021/05/18 17:56:50;;;;;;;1.8;0.4;;;;;;;11.84;79.27148;935.4633;;;;
2021/05/18 17:59:17;;;;;;;0.3;0.3;;;;;;;11.82;81.37402;935.5231;;;;
2021/05/18 18:01:42;;;;;;;0.1;0.1;;;;;;;11.79;79.72949;935.4501;;;;
2021/05/18 18:04:34;;;;;;;0.1;0.1;;;;;;;11.79;79.92773;935.4542;;;;
2021/05/18 18:06:59;;;;;;;0.1;0.1;;;;;;;11.87;79.87207;935.4561;;;;
2021/05/18 18:09:24;;;;;;;0.2;0.1;;;;;;;11.96;79.14453;935.5478;;;;
2021/05/18 18:11:49;;;;;;;0.1;0.1;;;;;;;11.97;79.55859;935.5757;;;;
2021/05/18 18:14:14;;;;;;;0.1;0.1;;;;;;;11.99;79.67578;935.4464;;;;
2021/05/18 18:16:39;;;;;;;0.4;0.2;;;;;;;11.92;79.82324;935.4504;;;;
2021/05/18 18:19:05;;;;;;;0.2;0.2;;;;;;;11.95;80.03613;935.5383;;;;
2021/05/18 18:21:30;;;;;;;0.5;0.2;;;;;;;12.02;79.74023;935.5616;;;;
2021/05/18 18:23:58;;;;;;;0.4;0.2;;;;;;;12.16;79.2832;935.5439;;;;
2021/05/18 18:26:25;;;;;;;0.8;0.7;;;;;;;11.82;81.35254;935.5016;;;;
2021/05/18 18:28:51;;;;;;;1.1;0.5;;;;;;;11.5;82.55078;935.4758;;;;
2021/05/18 18:31:16;;;;;;;1.2;0.2;;;;;;;11.51;82.46094;935.5762;;;;
2021/05/18 18:33:42;;;;;;;0.3;0.3;;;;;;;11.53;82.91016;935.5667;;;;
2021/05/18 18:36:07;;;;;;;1.5;0.6;;;;;;;11.62;82.90625;935.4969;;;;
2021/05/18 18:38:32;;;;;;;0.7;0.5;;;;;;;11.64;82.97852;935.5783;;;;
2021/05/18 18:40:57;;;;;;;0.5;0.5;;;;;;;11.67;82.73047;935.5591;;;;
2021/05/18 18:43:24;;;;;;;1.5;1;;;;;;;11.55;81.89648;935.5865;;;;
2021/05/18 18:45:49;;;;;;;1.4;1.2;;;;;;;11.36;81.88379;935.6546;;;;
2021/05/18 18:48:16;;;;;;;0.5;0.5;;;;;;;11.27;82.57617;935.6153;;;;
2021/05/18 18:50:41;;;;;;;0.2;0.2;;;;;;;11.37;81.80566;935.5095;;;;
2021/05/18 18:53:30;;;;;;;1.5;0.3;;;;;;;11.49;80.93652;935.6224;;;;
2021/05/18 18:55:33;;;;;;;0.6;0.3;;;;;;;11.53;80.55273;935.6376;;;;
2021/05/18 18:58:01;;;;;;;1.7;0.9;;;;;;;11.44;81.38477;935.6949;;;;
2021/05/18 19:00:26;;;;;;;1.1;0.7;;;;;;;11.4;81.31836;935.6555;;;;
2021/05/18 19:02:57;;;;;;;0.4;0.4;;;;;;;11.36;81.67773;935.6976;;;;
2021/05/18 19:05:25;;;;;;;0.4;0.4;;;;;;;11.27;81.88965;935.6926;;;;
2021/05/18 19:07:44;;;;;;;0.4;0.4;;;;;;;11.28;82.29004;935.7294;;;;
2021/05/18 19:10:14;;;;;;;0.5;0.5;;;;;;;11.13;83.33691;935.7733;;;;
2021/05/18 19:12:43;;;;;;;1;0.7;;;;;;;11.06;82.94629;935.722;;;;
2021/05/18 19:14:58;;;;;;;1.1;0.5;;;;;;;10.94;82.45508;935.7468;;;;
2021/05/18 19:17:23;;;;;;;0.6;0.5;;;;;;;10.98;82.76074;935.8107;;;;
2021/05/18 19:19:48;;;;;;;0.5;0.3;;;;;;;11.06;82.86621;935.8279;;;;